createdAt,value
2022-10-15T00:00:23.888Z,9.83
2022-10-15T00:03:26.112Z,9.89
2022-10-15T00:06:28.331Z,9.96
2022-10-15T00:09:30.493Z,9.93
2022-10-15T00:12:33.087Z,9.90
2022-10-15T00:15:37.600Z,9.99
2022-10-15T00:18:40.872Z,9.99
2022-10-15T00:21:43.071Z,9.93
2022-10-15T00:24:45.249Z,10.08
2022-10-15T00:27:47.419Z,10.14
2022-10-15T00:30:49.577Z,10.13
2022-10-15T00:33:53.750Z,9.93
2022-10-15T00:36:57.710Z,9.89
2022-10-15T00:40:00.082Z,9.89
2022-10-15T00:43:02.358Z,9.93
2022-10-15T00:46:05.306Z,9.95
2022-10-15T00:49:14.433Z,9.88
2022-10-15T00:52:22.848Z,9.88
2022-10-15T00:55:35.019Z,9.89
2022-10-15T00:58:37.326Z,9.81
2022-10-15T01:01:40.567Z,9.81
2022-10-15T01:04:42.785Z,9.71
2022-10-15T01:07:45.169Z,9.71
2022-10-15T01:11:14.376Z,9.68
2022-10-15T01:14:20.153Z,9.58
2022-10-15T01:17:30.789Z,9.51
2022-10-15T01:20:41.998Z,9.51
2022-10-15T01:24:25.964Z,9.55
2022-10-15T01:27:36.289Z,9.67
2022-10-15T01:30:54.051Z,9.79
2022-10-15T01:34:03.236Z,9.82
2022-10-15T01:37:19.310Z,9.81
2022-10-15T01:40:36.652Z,9.65
2022-10-15T01:44:19.120Z,9.57
2022-10-15T01:47:52.588Z,9.42
2022-10-15T01:50:59.825Z,9.37
2022-10-15T01:54:05.527Z,9.55
2022-10-15T01:57:11.133Z,9.59
2022-10-15T02:00:15.209Z,9.55
2022-10-15T02:03:17.519Z,9.55
2022-10-15T02:06:29.043Z,9.31
2022-10-15T02:09:52.507Z,9.28
2022-10-15T02:13:16.567Z,9.27
2022-10-15T02:16:46.613Z,9.08
2022-10-15T02:20:05.760Z,9.07
2022-10-15T02:23:20.083Z,9.01
2022-10-15T02:26:26.109Z,9.11
2022-10-15T02:29:33.153Z,9.16
2022-10-15T02:32:39.875Z,9.11
2022-10-15T02:35:43.667Z,9.11
2022-10-15T02:38:47.995Z,9.01
2022-10-15T02:41:53.363Z,9.01
2022-10-15T02:44:55.577Z,9.13
2022-10-15T02:47:57.873Z,9.16
2022-10-15T02:51:00.074Z,9.13
2022-10-15T02:54:04.580Z,9.11
2022-10-15T02:57:06.766Z,9.04
2022-10-15T03:00:09.751Z,9.03
2022-10-15T03:03:14.027Z,8.94
2022-10-15T03:06:22.976Z,8.89
2022-10-15T03:09:25.177Z,8.87
2022-10-15T03:12:27.552Z,8.83
2022-10-15T03:15:29.983Z,8.80
2022-10-15T03:18:36.745Z,8.90
2022-10-15T03:21:42.080Z,8.86
2022-10-15T03:24:47.925Z,8.86
2022-10-15T03:27:54.482Z,8.91
2022-10-15T03:31:02.747Z,8.91
2022-10-15T03:34:05.396Z,8.93
2022-10-15T03:37:08.246Z,8.93
2022-10-15T03:40:15.030Z,8.91
2022-10-15T03:43:19.084Z,8.94
2022-10-15T03:46:21.943Z,8.90
2022-10-15T03:49:25.273Z,8.93
2022-10-15T03:52:28.235Z,8.93
2022-10-15T03:55:30.682Z,8.89
2022-10-15T03:58:33.750Z,8.93
2022-10-15T04:01:39.431Z,8.89
2022-10-15T04:04:42.642Z,8.89
2022-10-15T04:07:44.901Z,8.83
2022-10-15T04:10:53.124Z,8.81
2022-10-15T04:13:55.479Z,8.90
2022-10-15T04:16:59.073Z,8.93
2022-10-15T04:20:02.919Z,8.86
2022-10-15T04:23:05.112Z,8.86
2022-10-15T04:26:07.452Z,8.84
2022-10-15T04:29:09.704Z,8.84
2022-10-15T04:32:15.457Z,8.91
2022-10-15T04:35:18.503Z,8.97
2022-10-15T04:38:39.381Z,8.97
2022-10-15T04:41:42.985Z,8.76
2022-10-15T04:44:50.286Z,8.72
2022-10-15T04:47:52.612Z,8.70
2022-10-15T04:51:14.533Z,8.87
2022-10-15T04:54:36.932Z,8.93
2022-10-15T04:57:40.074Z,8.86
2022-10-15T05:00:42.677Z,8.86
2022-10-15T05:04:03.580Z,8.87
2022-10-15T05:07:08.741Z,8.99
2022-10-15T05:10:15.201Z,8.97
2022-10-15T05:13:17.459Z,8.97
2022-10-15T05:16:22.778Z,9.11
2022-10-15T05:19:25.436Z,9.16
2022-10-15T05:22:27.728Z,9.26
2022-10-15T05:25:35.955Z,9.44
2022-10-15T05:28:39.317Z,9.69
2022-10-15T05:31:41.700Z,10.02
2022-10-15T05:34:52.552Z,10.20
2022-10-15T05:37:54.994Z,10.59
2022-10-15T05:40:58.566Z,11.16
2022-10-15T05:44:01.955Z,11.32
2022-10-15T05:47:06.811Z,11.42
2022-10-15T05:50:11.772Z,11.42
2022-10-15T05:53:19.059Z,11.73
2022-10-15T05:56:23.676Z,11.84
2022-10-15T05:59:25.835Z,11.90
2022-10-15T06:02:28.425Z,12.65
2022-10-15T06:05:31.931Z,12.86
2022-10-15T06:08:34.179Z,13.16
2022-10-15T06:11:36.656Z,13.33
2022-10-15T06:14:38.820Z,13.07
2022-10-15T06:17:42.288Z,12.54
2022-10-15T06:20:44.825Z,12.03
2022-10-15T06:23:47.108Z,11.90
2022-10-15T06:26:49.273Z,12.21
2022-10-15T06:29:51.628Z,12.42
2022-10-15T06:32:54.103Z,12.76
2022-10-15T06:36:00.213Z,13.44
2022-10-15T06:39:02.529Z,13.98
2022-10-15T06:42:04.671Z,14.53
2022-10-15T06:45:19.391Z,14.98
2022-10-15T06:48:23.880Z,15.54
2022-10-15T06:51:26.103Z,15.66
2022-10-15T06:54:28.303Z,16.19
2022-10-15T06:57:31.050Z,16.67
2022-10-15T07:03:38.972Z,17.30
2022-10-15T07:06:42.298Z,17.57
2022-10-15T07:09:46.766Z,18.27
2022-10-15T07:12:48.991Z,17.98
2022-10-15T07:15:54.043Z,18.37
2022-10-15T07:18:56.642Z,18.66
2022-10-15T07:21:58.826Z,18.98
2022-10-15T07:25:00.959Z,17.76
2022-10-15T07:28:03.231Z,17.57
2022-10-15T07:31:07.754Z,17.05
2022-10-15T07:34:10.021Z,16.43
2022-10-15T07:37:14.187Z,16.24
2022-10-15T07:40:17.507Z,16.17
2022-10-15T07:43:20.122Z,16.09
2022-10-15T07:46:22.465Z,16.29
2022-10-15T07:49:36.679Z,16.51
2022-10-15T07:52:38.859Z,16.37
2022-10-15T07:55:41.038Z,16.27
2022-10-15T07:58:43.561Z,16.44
2022-10-15T08:01:50.662Z,16.56
2022-10-15T08:04:53.032Z,16.46
2022-10-15T08:07:55.279Z,16.48
2022-10-15T08:10:57.962Z,16.53
2022-10-15T08:14:00.249Z,16.68
2022-10-15T08:17:04.132Z,16.87
2022-10-15T08:20:06.744Z,17.12
2022-10-15T08:23:15.627Z,17.04
2022-10-15T08:26:18.001Z,17.25
2022-10-15T08:29:20.189Z,17.49
2022-10-15T08:32:22.609Z,18.66
2022-10-15T08:35:24.994Z,19.34
2022-10-15T08:38:27.341Z,20.08
2022-10-15T08:41:35.726Z,18.98
2022-10-15T08:44:52.097Z,18.65
2022-10-15T08:48:04.862Z,18.32
2022-10-15T08:51:20.115Z,18.14
2022-10-15T08:54:22.485Z,18.61
2022-10-15T08:57:24.927Z,19.12
2022-10-15T09:00:38.679Z,20.50
2022-10-15T09:04:14.978Z,20.67
2022-10-15T09:07:29.403Z,19.53
2022-10-15T09:10:49.519Z,18.75
2022-10-15T09:13:52.156Z,18.82
2022-10-15T09:17:05.579Z,18.96
2022-10-15T09:20:23.317Z,19.12
2022-10-15T09:23:32.240Z,18.93
2022-10-15T09:26:56.015Z,18.83
2022-10-15T09:30:23.279Z,19.22
2022-10-15T09:33:35.102Z,19.30
2022-10-15T09:36:47.189Z,19.33
2022-10-15T09:40:36.372Z,19.55
2022-10-15T09:43:40.974Z,19.63
2022-10-15T09:46:45.003Z,19.34
2022-10-15T09:49:47.199Z,19.26
2022-10-15T09:53:18.922Z,19.26
2022-10-15T09:56:36.914Z,19.27
2022-10-15T09:59:51.731Z,19.19
2022-10-15T10:03:15.614Z,19.24
2022-10-15T10:06:17.851Z,19.24
2022-10-15T10:09:31.731Z,19.65
2022-10-15T10:12:36.289Z,20.30
2022-10-15T10:15:42.059Z,20.94
2022-10-15T10:18:50.955Z,20.43
2022-10-15T10:22:10.786Z,20.08
2022-10-15T10:25:31.512Z,20.40
2022-10-15T10:28:56.643Z,20.72
2022-10-15T10:32:33.066Z,21.12
2022-10-15T10:35:50.550Z,20.74
2022-10-15T10:39:26.324Z,20.06
2022-10-15T10:42:33.726Z,20.88
2022-10-15T10:45:38.850Z,21.90
2022-10-15T10:48:44.259Z,23.46
2022-10-15T10:51:49.860Z,23.90
2022-10-15T10:54:59.637Z,24.75
2022-10-15T10:58:02.707Z,25.06
2022-10-15T11:01:05.129Z,24.34
2022-10-15T11:04:16.991Z,25.40
2022-10-15T11:07:54.319Z,25.68
2022-10-15T11:11:10.335Z,26.29
2022-10-15T11:14:33.945Z,27.47
2022-10-15T11:17:48.013Z,28.68
2022-10-15T11:21:38.034Z,29.22
2022-10-15T11:25:07.170Z,26.57
2022-10-15T11:28:35.780Z,25.85
2022-10-15T11:32:02.750Z,25.81
2022-10-15T11:35:51.683Z,26.06
2022-10-15T11:39:16.584Z,28.86
2022-10-15T11:42:28.555Z,29.49
2022-10-15T11:45:35.183Z,27.71
2022-10-15T11:48:49.353Z,27.31
2022-10-15T11:52:26.297Z,29.32
2022-10-15T11:55:44.983Z,28.90
2022-10-15T11:58:55.786Z,27.33
2022-10-15T12:02:33.339Z,27.20
2022-10-15T12:05:40.176Z,25.41
2022-10-15T12:08:44.107Z,25.00
2022-10-15T12:11:56.936Z,24.17
2022-10-15T12:15:14.289Z,22.95
2022-10-15T12:18:34.863Z,22.64
2022-10-15T12:21:44.328Z,22.81
2022-10-15T12:24:50.044Z,23.19
2022-10-15T12:28:05.071Z,23.47
2022-10-15T12:31:07.307Z,22.34
2022-10-15T12:34:39.795Z,22.54
2022-10-15T12:37:44.638Z,22.34
2022-10-15T12:40:47.588Z,21.88
2022-10-15T12:44:08.894Z,21.65
2022-10-15T12:47:11.384Z,21.48
2022-10-15T12:50:25.170Z,21.59
2022-10-15T12:53:33.216Z,21.51
2022-10-15T12:56:43.054Z,21.55
2022-10-15T12:59:45.184Z,21.37
2022-10-15T13:02:48.067Z,21.76
2022-10-15T13:05:54.213Z,21.72
2022-10-15T13:09:11.030Z,22.17
2022-10-15T13:12:23.247Z,22.23
2022-10-15T13:15:28.087Z,22.33
2022-10-15T13:18:31.639Z,22.14
2022-10-15T13:21:54.040Z,21.81
2022-10-15T13:24:56.820Z,21.55
2022-10-15T13:27:59.039Z,21.79
2022-10-15T13:31:05.555Z,21.52
2022-10-15T13:34:16.257Z,21.69
2022-10-15T13:37:30.116Z,21.62
2022-10-15T13:40:32.790Z,21.42
2022-10-15T13:43:35.004Z,21.65
2022-10-15T13:46:43.907Z,21.45
2022-10-15T13:49:46.111Z,21.12
2022-10-15T13:53:29.394Z,20.87
2022-10-15T13:56:32.902Z,20.79
2022-10-15T13:59:35.207Z,20.79
2022-10-15T14:02:37.371Z,20.46
2022-10-15T14:05:41.969Z,20.35
2022-10-15T14:08:44.696Z,20.35
2022-10-15T14:11:47.189Z,20.37
2022-10-15T14:14:49.488Z,20.35
2022-10-15T14:17:52.019Z,20.46
2022-10-15T14:20:54.648Z,21.15
2022-10-15T14:24:06.295Z,20.91
2022-10-15T14:27:15.694Z,20.66
2022-10-15T14:30:28.278Z,20.56
2022-10-15T14:33:40.769Z,20.29
2022-10-15T14:36:43.347Z,20.23
2022-10-15T14:39:48.239Z,20.28
2022-10-15T14:42:56.695Z,20.11
2022-10-15T14:46:02.119Z,20.05
2022-10-15T14:49:16.306Z,19.98
2022-10-15T14:52:20.611Z,19.91
2022-10-15T14:55:31.576Z,19.84
2022-10-15T14:58:34.148Z,19.85
2022-10-15T15:01:36.375Z,19.78
2022-10-15T15:04:42.063Z,19.67
2022-10-15T15:07:44.327Z,19.58
2022-10-15T15:13:51.830Z,19.55
2022-10-15T15:16:54.840Z,19.46
2022-10-15T15:19:57.905Z,19.37
2022-10-15T15:23:00.228Z,19.24
2022-10-15T15:26:02.850Z,19.09
2022-10-15T15:29:13.764Z,19.00
2022-10-15T15:32:16.531Z,18.98
2022-10-15T15:35:22.395Z,18.89
2022-10-15T15:38:31.344Z,18.85
2022-10-15T15:41:33.950Z,18.82
2022-10-15T15:44:36.175Z,18.79
2022-10-15T15:47:38.342Z,18.69
2022-10-15T15:50:40.713Z,18.61
2022-10-15T15:53:43.002Z,18.55
2022-10-15T15:56:45.176Z,18.56
2022-10-15T15:59:47.379Z,18.48
2022-10-15T16:02:51.895Z,18.32
2022-10-15T16:05:55.220Z,18.30
2022-10-15T16:08:59.516Z,18.22
2022-10-15T16:12:01.928Z,18.15
2022-10-15T16:15:06.213Z,18.08
2022-10-15T16:18:10.780Z,18.02
2022-10-15T16:21:12.956Z,17.98
2022-10-15T16:24:15.151Z,17.94
2022-10-15T16:27:17.373Z,17.90
2022-10-15T16:30:19.586Z,17.89
2022-10-15T16:33:21.765Z,17.86
2022-10-15T16:36:23.985Z,17.80
2022-10-15T16:39:26.235Z,17.77
2022-10-15T16:42:28.417Z,17.76
2022-10-15T16:45:30.588Z,17.71
2022-10-15T16:48:34.110Z,17.65
2022-10-15T16:51:38.595Z,17.57
2022-10-15T16:54:43.475Z,17.53
2022-10-15T16:57:45.636Z,17.49
2022-10-15T17:00:47.779Z,17.40
2022-10-15T17:03:50.298Z,17.40
2022-10-15T17:06:52.519Z,17.36
2022-10-15T17:09:55.041Z,17.33
2022-10-15T17:12:57.223Z,17.35
2022-10-15T17:16:15.012Z,17.38
2022-10-15T17:19:21.523Z,17.32
2022-10-15T17:22:24.017Z,17.33
2022-10-15T17:25:26.382Z,17.30
2022-10-15T17:28:28.884Z,17.26
2022-10-15T17:31:31.441Z,17.23
2022-10-15T17:34:34.318Z,17.12
2022-10-15T17:37:36.538Z,17.14
2022-10-15T17:40:40.591Z,17.09
2022-10-15T17:43:43.198Z,17.08
2022-10-15T17:46:45.604Z,17.09
2022-10-15T17:49:47.809Z,17.08
2022-10-15T17:52:50.014Z,17.05
2022-10-15T17:55:52.220Z,17.05
2022-10-15T17:58:54.628Z,17.07
2022-10-15T18:02:00.968Z,16.99
2022-10-15T18:05:06.315Z,17.04
2022-10-15T18:08:10.053Z,17.04
2022-10-15T18:11:19.029Z,16.99
2022-10-15T18:14:21.789Z,16.96
2022-10-15T18:17:24.339Z,16.92
2022-10-15T18:20:26.742Z,16.87
2022-10-15T18:26:38.893Z,16.81
2022-10-15T18:29:41.080Z,16.79
2022-10-15T18:32:43.228Z,16.79
2022-10-15T18:35:52.170Z,16.71
2022-10-15T18:38:55.246Z,16.65
2022-10-15T18:41:57.465Z,16.67
2022-10-15T18:44:59.621Z,16.64
2022-10-15T18:48:01.791Z,16.60
2022-10-15T18:51:09.479Z,16.60
2022-10-15T18:54:12.368Z,16.57
2022-10-15T18:57:14.519Z,16.58
2022-10-15T19:00:16.734Z,16.61
2022-10-15T19:03:18.945Z,16.61
2022-10-15T19:06:23.924Z,16.63
2022-10-15T19:09:26.536Z,16.64
2022-10-15T19:12:28.926Z,16.64
2022-10-15T19:15:31.200Z,16.58
2022-10-15T19:18:35.230Z,16.65
2022-10-15T19:21:37.664Z,16.60
2022-10-15T19:24:39.861Z,16.60
2022-10-15T19:27:42.048Z,16.56
2022-10-15T19:30:44.681Z,16.54
2022-10-15T19:33:47.112Z,16.53
2022-10-15T19:36:50.800Z,16.46
2022-10-15T19:39:53.135Z,16.41
2022-10-15T19:42:56.472Z,16.37
2022-10-15T19:46:03.680Z,16.34
2022-10-15T19:49:08.393Z,16.27
2022-10-15T19:52:10.566Z,16.23
2022-10-15T19:55:17.049Z,16.12
2022-10-15T19:58:19.208Z,16.06
2022-10-15T20:01:21.391Z,16.00
2022-10-15T20:04:23.609Z,15.96
2022-10-15T20:07:26.045Z,15.88
2022-10-15T20:10:28.420Z,15.73
2022-10-15T20:13:30.684Z,15.73
2022-10-15T20:16:33.663Z,15.61
2022-10-15T20:19:36.367Z,15.55
2022-10-15T20:22:38.530Z,15.49
2022-10-15T20:25:42.779Z,15.44
2022-10-15T20:28:46.747Z,15.47
2022-10-15T20:31:51.236Z,15.42
2022-10-15T20:34:53.428Z,15.44
2022-10-15T20:37:55.624Z,15.47
2022-10-15T20:40:57.806Z,15.42
2022-10-15T20:44:00.271Z,15.35
2022-10-15T20:47:06.074Z,15.38
2022-10-15T20:50:18.998Z,15.32
2022-10-15T20:53:23.465Z,15.20
2022-10-15T20:56:25.776Z,15.18
2022-10-15T20:59:30.272Z,15.10
2022-10-15T21:02:32.743Z,15.00
2022-10-15T21:05:34.931Z,15.04
2022-10-15T21:08:37.090Z,14.98
2022-10-15T21:11:46.458Z,14.96
2022-10-15T21:14:48.680Z,14.91
2022-10-15T21:17:50.844Z,14.84
2022-10-15T21:20:54.745Z,14.86
2022-10-15T21:23:58.355Z,14.87
2022-10-15T21:27:01.489Z,14.87
2022-10-15T21:30:04.082Z,14.81
2022-10-15T21:33:06.711Z,14.81
2022-10-15T21:36:15.002Z,14.83
2022-10-15T21:39:17.174Z,14.77
2022-10-15T21:42:19.319Z,14.76
2022-10-15T21:45:21.481Z,14.73
2022-10-15T21:48:23.700Z,14.70
2022-10-15T21:51:29.726Z,14.63
2022-10-15T21:54:34.321Z,14.62
2022-10-15T21:57:36.552Z,14.57
2022-10-15T22:00:38.715Z,14.56
2022-10-15T22:03:41.620Z,14.52
2022-10-15T22:06:44.104Z,14.47
2022-10-15T22:09:47.607Z,14.50
2022-10-15T22:12:52.747Z,14.49
2022-10-15T22:15:55.055Z,14.45
2022-10-15T22:18:57.565Z,14.40
2022-10-15T22:21:59.729Z,14.42
2022-10-15T22:25:01.908Z,14.36
2022-10-15T22:28:04.333Z,14.33
2022-10-15T22:31:10.167Z,14.28
2022-10-15T22:34:14.424Z,14.26
2022-10-15T22:37:16.723Z,14.32
2022-10-15T22:40:18.924Z,14.25
2022-10-15T22:43:21.887Z,14.25
2022-10-15T22:46:24.525Z,14.25
2022-10-15T22:49:26.907Z,14.21
2022-10-15T22:52:29.076Z,14.19
2022-10-15T22:55:31.624Z,14.21
2022-10-15T22:58:34.972Z,14.12
2022-10-15T23:01:37.392Z,14.21
2022-10-15T23:04:39.627Z,14.16
2022-10-15T23:07:43.222Z,14.12
2022-10-15T23:10:45.667Z,14.14
2022-10-15T23:14:02.003Z,14.12
2022-10-15T23:17:04.263Z,14.21
2022-10-15T23:20:06.729Z,14.05
2022-10-15T23:23:08.907Z,14.02
2022-10-15T23:26:13.560Z,14.00
2022-10-15T23:29:18.474Z,14.02
2022-10-15T23:32:20.654Z,13.97
2022-10-15T23:35:22.923Z,13.94
2022-10-15T23:38:25.283Z,13.92
2022-10-15T23:41:29.086Z,13.92
2022-10-15T23:44:31.264Z,13.79
2022-10-15T23:47:33.525Z,13.74
2022-10-15T23:50:36.532Z,13.68
2022-10-15T23:53:39.079Z,13.60
2022-10-15T23:56:41.670Z,13.44
2022-10-15T23:59:43.863Z,13.37
